• Join FlightAware (Why Join?)
  • Login
  • US Flag 
05:20AM EST


 

Airport Tracker/Info


-or-


 

Live Flight TrackerFlight Track Log ✈ ADR704 ✈ 21-Jun-2014 ✈ LJLJ / LJU - LATI / TIA

Flight Track Log - Related Links

Times and Time Zones

All times are in EDT time to prevent confusion due to time zone crossing. See the ADR704 flight status page for this flight to view local times or setup timezone preferences in your user account.

Time Position Orientation Groundspeed Altitude Reporting Facility
EDT Latitude Longitude Course Direction KTS MPH feet Rate Location/Type
08:00AM 45.1194 15.7685 140° Southeast  Level Estimated
08:01AM 45.0183 15.8852 141° Southeast  Level Estimated
08:02AM 44.9171 16.0014 141° Southeast  Level Estimated
08:03AM 44.8157 16.1172 141° Southeast  Level Estimated
08:04AM 44.7143 16.2326 141° Southeast  Level Estimated
08:05AM 44.6127 16.3477 141° Southeast  Level Estimated
08:06AM 44.5110 16.4623 141° Southeast  Level Estimated
08:07AM 44.4092 16.5765 141° Southeast  Level Estimated
08:08AM 44.3072 16.6903 141° Southeast  Level Estimated
08:09AM 44.2052 16.8037 141° Southeast  Level Estimated
08:10AM 44.1030 16.9167 142° Southeast  Level Estimated
08:11AM 44.0008 17.0294 142° Southeast  Level Estimated
08:12AM 43.8984 17.1416 142° Southeast  Level Estimated
08:13AM 43.7959 17.2535 142° Southeast  Level Estimated
08:14AM 43.6933 17.3650 142° Southeast  Level Estimated
08:15AM 43.5906 17.4760 142° Southeast  Level Estimated
08:16AM 43.4878 17.5868 142° Southeast  Level Estimated
08:17AM 43.3849 17.6971 142° Southeast  Level Estimated
08:18AM 43.2819 17.8071 142° Southeast  Level Estimated
08:19AM 43.1788 17.9167 142° Southeast  Level Estimated
08:20AM 43.0755 18.0259 142° Southeast  Level Estimated
08:21AM 42.9722 18.1348 142° Southeast  Level Estimated
08:22AM 42.8688 18.2432 142° Southeast  Level Estimated
08:23AM 42.7652 18.3514 143° Southeast  Level Estimated
08:24AM 42.6616 18.4592 143° Southeast  Level Estimated
08:25AM 42.5578 18.5666 143° Southeast  Level Estimated
08:26AM 42.4540 18.6736 143° Southeast  Level Estimated
08:27AM 42.3501 18.7803 143° Southeast  Level Estimated
08:28AM 42.2460 18.8867 143° Southeast  Level Estimated
08:29AM 42.1419 18.9926 143° Southeast  Level Estimated
08:30AM 42.0377 19.0983 143° Southeast  Level Estimated
08:31AM 41.9333 19.2036 143° Southeast  Level Estimated
08:32AM 41.8289 19.3086 143° Southeast  Level Estimated
08:33AM 41.7244 19.4132 143° Southeast  Level Estimated
08:34AM 41.6198 19.5175 143° Southeast  Level Estimated
08:35AM 41.5151 19.6214 143° Southeast  Level Estimated
08:36AM 41.4147 19.7206 143° Southeast  Level Estimated
08:37AM 41.4147 19.7206 North  Level Estimated
08:38AM 41.4147 19.7206 North  Level Estimated
08:39AM 41.4147 19.7206 North  Level Estimated
08:40AM 41.4147 19.7206 North  Level Estimated
08:41AM 41.4147 19.7206 North  Level Estimated
08:42AM 41.4147 19.7206 North  Level Estimated
08:43AM 41.4147 19.7206 North  Level Estimated
08:44AM 41.4147 19.7206 North  Level Estimated
08:45AM 41.4147 19.7206 North  Level Estimated
08:46AM 41.4147 19.7206 North  Level Estimated
08:47AM 41.4147 19.7206 North  Level Estimated
08:48AM 41.4147 19.7206 North  Level Estimated